Time;durP1;ratioP1;P1;durP2;ratioP2;P2;SDS_P1;SDS_P2;PMS_P1;PMS_P2;Temp;Humidity;BMP_temperature;BMP_pressure;BME280_temperature;BME280_humidity;BME280_pressure;Samples;Min_cycle;Max_cycle;Signal;HPM_P1;HPM_P2
2023/07/10 00:02:39;;;;;;;5.90;3.88;;;;;;;;;;4866149;29;20399;-82
2023/07/10 00:05:24;;;;;;;5.38;3.90;;;;;;;;;;4860731;29;20049;-81
2023/07/10 00:08:10;;;;;;;8.57;4.03;;;;;;;;;;4860945;29;20041;-82
2023/07/10 00:10:57;;;;;;;9.65;3.55;;;;;;;;;;4860895;29;20042;-81
2023/07/10 00:13:45;;;;;;;6.65;3.80;;;;;;;;;;4865963;29;20053;-83
2023/07/10 00:16:30;;;;;;;6.47;4.07;;;;;;;;;;4862725;29;20046;-83
2023/07/10 00:19:16;;;;;;;10.23;3.92;;;;;;;;;;4864442;29;20050;-83
2023/07/10 00:22:01;;;;;;;5.85;3.70;;;;;;;;;;4863185;29;20041;-83
2023/07/10 00:24:46;;;;;;;6.60;4.22;;;;;;;;;;4864188;29;20408;-83
2023/07/10 00:27:32;;;;;;;6.15;3.85;;;;;;;;;;4863671;29;20042;-82
2023/07/10 00:30:23;;;;;;;8.93;3.95;;;;;;;;;;4864736;29;20057;-82
2023/07/10 00:33:13;;;;;;;7.68;3.75;;;;;;;;;;4869362;29;20053;-83
2023/07/10 00:35:58;;;;;;;6.63;4.10;;;;;;;;;;4864137;29;20388;-82
2023/07/10 00:38:43;;;;;;;6.13;3.63;;;;;;;;;;4872326;29;20057;-83
2023/07/10 00:41:32;;;;;;;4.63;3.58;;;;;;;;;;4857939;29;20049;-82
2023/07/10 00:44:20;;;;;;;6.97;4.00;;;;;;;;;;4869047;29;20436;-81
2023/07/10 00:47:16;;;;;;;6.50;3.65;;;;;;;;;;4856224;29;20049;-81
2023/07/10 00:50:16;;;;;;;5.82;4.40;;;;;;;;;;4869147;29;20049;-83
2023/07/10 00:53:09;;;;;;;5.88;3.85;;;;;;;;;;4864174;29;20054;-81
2023/07/10 00:56:00;;;;;;;8.20;4.03;;;;;;;;;;4863603;29;20483;-80
2023/07/10 00:58:47;;;;;;;7.03;4.30;;;;;;;;;;4869062;29;20049;-83
2023/07/10 01:02:01;;;;;;;8.25;3.85;;;;;;;;;;4868979;29;20045;-86
2023/07/10 01:04:54;;;;;;;7.72;4.15;;;;;;;;;;4855681;29;20075;-86
2023/07/10 01:07:47;;;;;;;6.70;4.10;;;;;;;;;;4862272;29;20057;-86
2023/07/10 01:10:33;;;;;;;8.82;4.28;;;;;;;;;;4875703;29;20041;-88
2023/07/10 01:13:18;;;;;;;6.20;3.80;;;;;;;;;;4869168;29;20049;-88
2023/07/10 01:16:04;;;;;;;5.28;3.58;;;;;;;;;;4872061;29;20045;-85
2023/07/10 01:18:50;;;;;;;4.97;3.65;;;;;;;;;;4856844;29;20061;-86
2023/07/10 01:21:38;;;;;;;7.38;3.38;;;;;;;;;;4879876;29;20049;-88
2023/07/10 01:24:24;;;;;;;7.63;3.42;;;;;;;;;;4871650;29;20380;-85
2023/07/10 01:27:12;;;;;;;6.35;3.45;;;;;;;;;;4862454;29;20049;-87
2023/07/10 01:30:05;;;;;;;4.65;3.53;;;;;;;;;;4865831;29;20057;-88
2023/07/10 01:32:52;;;;;;;5.45;3.33;;;;;;;;;;4866341;29;20499;-88
2023/07/10 01:35:37;;;;;;;5.78;3.47;;;;;;;;;;4870623;29;20049;-87
2023/07/10 01:38:38;;;;;;;5.80;3.92;;;;;;;;;;4864316;29;20049;-87
2023/07/10 01:41:39;;;;;;;7.85;3.65;;;;;;;;;;4862152;29;20049;-86
2023/07/10 01:44:26;;;;;;;7.00;3.65;;;;;;;;;;4856751;29;20049;-85
2023/07/10 01:47:13;;;;;;;4.97;3.28;;;;;;;;;;4868373;29;20053;-85
2023/07/10 01:49:59;;;;;;;5.13;3.67;;;;;;;;;;4867934;29;20053;-86
2023/07/10 01:52:44;;;;;;;6.82;3.70;;;;;;;;;;4867722;29;20054;-86
2023/07/10 01:55:38;;;;;;;5.18;3.67;;;;;;;;;;4867413;29;20053;-85
2023/07/10 01:58:23;;;;;;;5.97;3.92;;;;;;;;;;4867825;29;20045;-86
2023/07/10 02:01:09;;;;;;;6.65;4.15;;;;;;;;;;4856451;29;20049;-87
2023/07/10 02:03:55;;;;;;;6.13;4.13;;;;;;;;;;4864022;29;20049;-86
2023/07/10 02:06:40;;;;;;;6.03;3.75;;;;;;;;;;4867556;29;20045;-86
2023/07/10 02:09:28;;;;;;;7.47;4.25;;;;;;;;;;4868214;29;20053;-88
2023/07/10 02:12:14;;;;;;;6.55;3.65;;;;;;;;;;4869164;29;20049;-86
2023/07/10 02:14:59;;;;;;;5.38;3.40;;;;;;;;;;4854633;29;20057;-86
2023/07/10 02:17:45;;;;;;;6.97;3.70;;;;;;;;;;4871276;29;20038;-86
2023/07/10 02:20:30;;;;;;;5.50;3.80;;;;;;;;;;4867432;29;20057;-83
2023/07/10 02:23:22;;;;;;;7.75;4.00;;;;;;;;;;4867357;29;20057;-83
2023/07/10 02:26:08;;;;;;;6.07;3.80;;;;;;;;;;4873539;29;20045;-84
2023/07/10 02:28:57;;;;;;;5.90;3.95;;;;;;;;;;4874900;29;20400;-85
2023/07/10 02:31:52;;;;;;;5.95;4.15;;;;;;;;;;4869286;29;20053;-86
2023/07/10 02:34:37;;;;;;;;;;;;;;;;;;4854791;29;20049;-84
2023/07/10 02:37:23;;;;;;;4.85;3.65;;;;;;;;;;4865893;29;19916;-86
2023/07/10 02:40:09;;;;;;;4.90;3.78;;;;;;;;;;4880452;29;20614;-85
2023/07/10 02:42:54;;;;;;;5.25;4.22;;;;;;;;;;4861409;29;20053;-85
2023/07/10 02:45:40;;;;;;;7.15;3.83;;;;;;;;;;4866830;29;20057;-85
2023/07/10 02:48:30;;;;;;;4.50;3.65;;;;;;;;;;4867202;29;20054;-85
2023/07/10 02:51:18;;;;;;;7.63;3.90;;;;;;;;;;4867818;29;20053;-82
2023/07/10 02:54:12;;;;;;;5.28;3.78;;;;;;;;;;4872745;29;20053;-85
2023/07/10 02:56:58;;;;;;;5.90;4.05;;;;;;;;;;4870390;29;20053;-85
2023/07/10 02:59:43;;;;;;;7.97;3.83;;;;;;;;;;4866829;29;20487;-86
2023/07/10 03:02:29;;;;;;;5.88;3.53;;;;;;;;;;4867615;29;20399;-86
2023/07/10 03:05:15;;;;;;;5.40;3.60;;;;;;;;;;4883845;29;20045;-83
2023/07/10 03:08:00;;;;;;;9.40;3.92;;;;;;;;;;4861378;29;20046;-82
2023/07/10 03:10:45;;;;;;;5.95;3.70;;;;;;;;;;4861294;29;20403;-83
2023/07/10 03:13:31;;;;;;;5.78;3.67;;;;;;;;;;4867528;29;20045;-82
2023/07/10 03:16:17;;;;;;;5.28;3.85;;;;;;;;;;4867030;29;20046;-82
2023/07/10 03:19:02;;;;;;;7.78;3.90;;;;;;;;;;4861307;29;20411;-84
2023/07/10 03:21:48;;;;;;;9.05;3.75;;;;;;;;;;4867071;29;20050;-85
2023/07/10 03:24:33;;;;;;;6.10;3.70;;;;;;;;;;4860517;29;20049;-83
2023/07/10 03:27:18;;;;;;;6.40;3.70;;;;;;;;;;4859714;29;20484;-84
2023/07/10 03:30:04;;;;;;;6.72;3.88;;;;;;;;;;4860017;29;20061;-84
2023/07/10 03:32:50;;;;;;;5.95;3.85;;;;;;;;;;4866219;29;20057;-84
2023/07/10 03:35:35;;;;;;;8.40;3.80;;;;;;;;;;4865150;29;20045;-83
2023/07/10 03:38:20;;;;;;;11.45;4.13;;;;;;;;;;4862824;29;20045;-84
2023/07/10 03:41:06;;;;;;;5.13;3.80;;;;;;;;;;4864614;29;20045;-85
2023/07/10 03:43:52;;;;;;;6.07;3.47;;;;;;;;;;4860913;29;20053;-81
2023/07/10 03:46:37;;;;;;;7.68;3.58;;;;;;;;;;4860876;29;20045;-81
2023/07/10 03:49:25;;;;;;;8.13;3.83;;;;;;;;;;4860588;29;20049;-81
2023/07/10 03:52:11;;;;;;;7.85;4.25;;;;;;;;;;4864141;29;20487;-83
2023/07/10 03:54:56;;;;;;;6.35;3.78;;;;;;;;;;4869688;29;20054;-82
2023/07/10 03:57:41;;;;;;;7.03;3.80;;;;;;;;;;4863545;29;20033;-82
2023/07/10 04:00:27;;;;;;;5.60;3.60;;;;;;;;;;4864421;29;20407;-82
2023/07/10 04:03:13;;;;;;;6.05;4.00;;;;;;;;;;4864663;29;20049;-82
2023/07/10 04:05:59;;;;;;;4.28;3.25;;;;;;;;;;4856533;29;20045;-82
2023/07/10 04:08:47;;;;;;;5.95;3.65;;;;;;;;;;4864312;29;20046;-82
2023/07/10 04:11:32;;;;;;;4.95;3.70;;;;;;;;;;4864503;29;20410;-83
2023/07/10 04:14:18;;;;;;;4.88;3.50;;;;;;;;;;4864048;29;20049;-83
2023/07/10 04:17:04;;;;;;;9.50;3.85;;;;;;;;;;4869271;29;20045;-82
2023/07/10 04:19:49;;;;;;;6.60;3.88;;;;;;;;;;4864208;29;20049;-83
2023/07/10 04:22:35;;;;;;;7.85;3.80;;;;;;;;;;4864071;29;20392;-83
2023/07/10 04:25:20;;;;;;;8.32;3.95;;;;;;;;;;4863996;29;20491;-82
2023/07/10 04:28:06;;;;;;;7.97;3.90;;;;;;;;;;4863736;29;20392;-82
2023/07/10 04:30:53;;;;;;;4.95;3.63;;;;;;;;;;4861127;29;20049;-82
2023/07/10 04:33:39;;;;;;;5.40;3.38;;;;;;;;;;4869754;29;20415;-82
2023/07/10 04:36:24;;;;;;;6.70;3.65;;;;;;;;;;4864388;29;20046;-83
2023/07/10 04:39:10;;;;;;;7.00;3.90;;;;;;;;;;4864058;29;20050;-82
2023/07/10 04:41:55;;;;;;;8.00;3.75;;;;;;;;;;4868878;29;20041;-82
2023/07/10 04:44:41;;;;;;;6.38;3.90;;;;;;;;;;4864160;29;20049;-83
2023/07/10 04:47:26;;;;;;;6.03;3.78;;;;;;;;;;4863654;29;20045;-82
2023/07/10 04:50:12;;;;;;;7.32;3.53;;;;;;;;;;4875804;29;20045;-82
2023/07/10 04:52:57;;;;;;;12.60;3.88;;;;;;;;;;4864434;29;20041;-83
2023/07/10 04:55:44;;;;;;;5.80;3.40;;;;;;;;;;4863654;29;20049;-83
2023/07/10 04:58:43;;;;;;;6.40;3.25;;;;;;;;;;4864545;29;20046;-83
2023/07/10 05:01:33;;;;;;;12.27;3.67;;;;;;;;;;4869375;29;20400;-83
2023/07/10 05:04:19;;;;;;;8.63;3.33;;;;;;;;;;4867697;29;20049;-83
2023/07/10 05:07:04;;;;;;;5.88;3.90;;;;;;;;;;4867432;29;20050;-84
2023/07/10 05:09:50;;;;;;;10.10;3.97;;;;;;;;;;4863489;29;20395;-83
2023/07/10 05:12:35;;;;;;;5.07;3.50;;;;;;;;;;4863787;29;20480;-83
2023/07/10 05:15:21;;;;;;;7.88;3.63;;;;;;;;;;4863713;29;20464;-82
2023/07/10 05:18:07;;;;;;;4.35;3.10;;;;;;;;;;4863424;29;20045;-83
2023/07/10 05:20:54;;;;;;;4.72;2.97;;;;;;;;;;4868641;29;20045;-82
2023/07/10 05:23:40;;;;;;;5.85;3.10;;;;;;;;;;4862935;29;20057;-83
2023/07/10 05:26:26;;;;;;;5.75;3.00;;;;;;;;;;4868089;29;20053;-83
2023/07/10 05:29:11;;;;;;;5.55;3.00;;;;;;;;;;4866804;29;20057;-84
2023/07/10 05:31:56;;;;;;;13.18;3.42;;;;;;;;;;4863529;29;20046;-81
2023/07/10 05:34:42;;;;;;;8.10;2.95;;;;;;;;;;4862870;29;20054;-83
2023/07/10 05:37:27;;;;;;;4.15;2.60;;;;;;;;;;4862887;29;20041;-82
2023/07/10 05:40:14;;;;;;;11.13;3.30;;;;;;;;;;4868308;29;20045;-83
2023/07/10 05:42:59;;;;;;;9.13;3.22;;;;;;;;;;4862797;29;20053;-83
2023/07/10 05:45:45;;;;;;;8.68;2.90;;;;;;;;;;4862722;29;20053;-83
2023/07/10 05:48:31;;;;;;;6.03;3.00;;;;;;;;;;4862406;29;20432;-84
2023/07/10 05:51:17;;;;;;;4.25;2.80;;;;;;;;;;4862908;29;20050;-84
2023/07/10 05:54:02;;;;;;;4.00;2.97;;;;;;;;;;4867924;29;20057;-83
2023/07/10 05:56:48;;;;;;;7.38;3.25;;;;;;;;;;4861691;29;20049;-83
2023/07/10 05:59:33;;;;;;;9.65;3.08;;;;;;;;;;4870874;29;20399;-84
2023/07/10 06:02:18;;;;;;;9.30;3.25;;;;;;;;;;4864735;29;20046;-83
2023/07/10 06:05:04;;;;;;;4.65;2.80;;;;;;;;;;4865581;29;20045;-85
2023/07/10 06:07:49;;;;;;;5.32;2.95;;;;;;;;;;4862462;29;20054;-83
2023/07/10 06:10:35;;;;;;;14.30;3.83;;;;;;;;;;4867334;29;20053;-83
2023/07/10 06:13:20;;;;;;;11.73;3.58;;;;;;;;;;4861400;29;20057;-83
2023/07/10 06:16:08;;;;;;;10.48;2.80;;;;;;;;;;4862188;29;20507;-83
2023/07/10 06:18:53;;;;;;;7.68;3.00;;;;;;;;;;4861057;29;20407;-83
2023/07/10 06:21:39;;;;;;;9.68;3.13;;;;;;;;;;4862333;29;20057;-82
2023/07/10 06:24:24;;;;;;;5.72;3.33;;;;;;;;;;4861184;29;20041;-82
2023/07/10 06:27:10;;;;;;;6.43;3.60;;;;;;;;;;4861790;29;20045;-82
2023/07/10 06:29:56;;;;;;;12.80;3.10;;;;;;;;;;4861804;29;20448;-83
2023/07/10 06:32:41;;;;;;;5.85;3.45;;;;;;;;;;4860733;29;20432;-83
2023/07/10 06:35:27;;;;;;;8.23;3.28;;;;;;;;;;4862326;29;20120;-82
2023/07/10 06:38:12;;;;;;;5.20;3.00;;;;;;;;;;4861945;29;20033;-82
2023/07/10 06:40:58;;;;;;;36.42;8.90;;;;;;;;;;4867360;29;20053;-83
2023/07/10 06:43:44;;;;;;;10.70;3.63;;;;;;;;;;4861335;29;20045;-83
2023/07/10 06:46:29;;;;;;;6.53;3.35;;;;;;;;;;4862091;29;20049;-83
2023/07/10 06:49:15;;;;;;;9.27;3.65;;;;;;;;;;4862256;29;20049;-84
2023/07/10 06:52:00;;;;;;;9.68;3.92;;;;;;;;;;4861772;29;20403;-83
2023/07/10 06:54:46;;;;;;;19.15;3.72;;;;;;;;;;4860655;29;20041;-83
2023/07/10 06:57:31;;;;;;;14.73;3.20;;;;;;;;;;4863000;29;20054;-83
2023/07/10 07:00:18;;;;;;;5.93;3.17;;;;;;;;;;4869150;29;20049;-84
2023/07/10 07:03:03;;;;;;;3.70;2.80;;;;;;;;;;4863725;29;20050;-82
2023/07/10 07:05:49;;;;;;;6.82;3.13;;;;;;;;;;4864259;29;20049;-82
2023/07/10 07:08:34;;;;;;;11.82;3.53;;;;;;;;;;4863979;29;20049;-83
2023/07/10 07:11:20;;;;;;;7.43;3.40;;;;;;;;;;4856683;29;20049;-83
2023/07/10 07:14:05;;;;;;;13.60;3.97;;;;;;;;;;4870762;29;20057;-82
2023/07/10 07:16:51;;;;;;;12.38;3.38;;;;;;;;;;4864198;29;20419;-83
2023/07/10 07:19:36;;;;;;;4.93;3.03;;;;;;;;;;4865185;29;20049;-83
2023/07/10 07:22:22;;;;;;;5.88;3.00;;;;;;;;;;4861523;29;20117;-83
2023/07/10 07:25:07;;;;;;;5.50;3.20;;;;;;;;;;4864597;29;20041;-84
2023/07/10 07:27:53;;;;;;;5.88;3.10;;;;;;;;;;4865006;29;20050;-84
2023/07/10 07:30:40;;;;;;;5.75;2.75;;;;;;;;;;4864560;29;20046;-83
2023/07/10 07:33:26;;;;;;;11.75;3.75;;;;;;;;;;4866051;29;20053;-81
2023/07/10 07:36:12;;;;;;;6.55;2.90;;;;;;;;;;4871110;29;20061;-83
2023/07/10 07:38:57;;;;;;;4.78;2.90;;;;;;;;;;4864372;29;20037;-83
2023/07/10 07:41:44;;;;;;;8.30;3.10;;;;;;;;;;4869928;29;20116;-85
2023/07/10 07:44:29;;;;;;;8.50;3.47;;;;;;;;;;4870283;29;20041;-85
2023/07/10 07:47:15;;;;;;;10.23;3.38;;;;;;;;;;4865119;29;20049;-84
2023/07/10 07:50:04;;;;;;;4.93;3.40;;;;;;;;;;4870459;29;20037;-82
2023/07/10 07:52:49;;;;;;;4.97;3.20;;;;;;;;;;4863264;29;20045;-83
2023/07/10 07:55:35;;;;;;;8.57;3.08;;;;;;;;;;4869817;29;20041;-84
2023/07/10 07:58:21;;;;;;;8.32;3.65;;;;;;;;;;4863606;29;20045;-83
2023/07/10 08:01:06;;;;;;;10.27;3.90;;;;;;;;;;4865649;29;20396;-82
2023/07/10 08:03:53;;;;;;;19.50;3.70;;;;;;;;;;4864977;29;20058;-84
2023/07/10 08:06:38;;;;;;;7.25;3.08;;;;;;;;;;4864527;29;20054;-83
2023/07/10 08:09:24;;;;;;;7.38;3.85;;;;;;;;;;4864525;29;20049;-82
2023/07/10 08:12:09;;;;;;;8.93;3.58;;;;;;;;;;4864187;29;20050;-81
2023/07/10 08:14:55;;;;;;;5.45;3.58;;;;;;;;;;4869718;29;20053;-82
2023/07/10 08:17:40;;;;;;;7.13;3.55;;;;;;;;;;4864124;29;20067;-82
2023/07/10 08:20:26;;;;;;;7.20;3.92;;;;;;;;;;4863446;29;20049;-82
2023/07/10 08:23:12;;;;;;;7.18;3.70;;;;;;;;;;4864440;29;20049;-82
2023/07/10 08:25:57;;;;;;;7.20;4.18;;;;;;;;;;4864308;29;20053;-82
2023/07/10 08:28:43;;;;;;;7.82;3.20;;;;;;;;;;4863444;29;20403;-82
2023/07/10 08:31:30;;;;;;;7.25;3.70;;;;;;;;;;4882252;29;20419;-83
2023/07/10 08:34:15;;;;;;;6.45;3.47;;;;;;;;;;4883143;29;20037;-84
2023/07/10 08:37:01;;;;;;;9.45;4.40;;;;;;;;;;4883399;29;20060;-82
2023/07/10 08:39:48;;;;;;;10.38;4.20;;;;;;;;;;4882251;29;20045;-75
2023/07/10 08:42:34;;;;;;;6.50;3.92;;;;;;;;;;4888683;29;20052;-77
2023/07/10 08:45:37;;;;;;;12.57;4.18;;;;;;;;;;4882427;29;20401;-77
2023/07/10 08:48:35;;;;;;;8.32;4.07;;;;;;;;;;4889008;29;20052;-77
2023/07/10 08:51:20;;;;;;;8.73;4.25;;;;;;;;;;4888470;29;20048;-77
2023/07/10 08:54:11;;;;;;;6.78;4.20;;;;;;;;;;4888214;29;20392;-79
2023/07/10 08:57:24;;;;;;;12.90;4.97;;;;;;;;;;4882730;29;20487;-79
2023/07/10 09:00:12;;;;;;;11.48;4.78;;;;;;;;;;4888080;29;20053;-78
2023/07/10 09:03:14;;;;;;;6.57;4.20;;;;;;;;;;4885784;29;20045;-76
2023/07/10 09:06:01;;;;;;;8.93;4.13;;;;;;;;;;4881607;29;20392;-78
2023/07/10 09:08:52;;;;;;;14.57;5.65;;;;;;;;;;4882034;29;20412;-78
2023/07/10 09:11:38;;;;;;;9.65;4.18;;;;;;;;;;4881772;29;20037;-77
2023/07/10 09:14:54;;;;;;;7.18;3.90;;;;;;;;;;4881688;29;20053;-79
2023/07/10 09:18:18;;;;;;;6.22;3.67;;;;;;;;;;4882203;29;20044;-77
2023/07/10 09:21:27;;;;;;;9.50;4.07;;;;;;;;;;4881545;29;20053;-76
2023/07/10 09:24:22;;;;;;;7.97;3.35;;;;;;;;;;4881617;29;20057;-79
2023/07/10 09:27:14;;;;;;;;;;;;;;;;;;4882173;29;20412;-78
2023/07/10 09:30:00;;;;;;;6.85;3.70;;;;;;;;;;4871701;29;19920;-79
2023/07/10 09:32:45;;;;;;;9.18;3.58;;;;;;;;;;4868936;29;20500;-78
2023/07/10 09:35:34;;;;;;;5.40;3.40;;;;;;;;;;4869212;29;20049;-77
2023/07/10 09:38:19;;;;;;;4.75;3.15;;;;;;;;;;4863006;29;20041;-79
2023/07/10 09:41:18;;;;;;;4.45;2.95;;;;;;;;;;4869051;29;20049;-76
2023/07/10 09:44:22;;;;;;;5.18;3.50;;;;;;;;;;4862796;29;20041;-79
2023/07/10 09:47:10;;;;;;;8.43;3.60;;;;;;;;;;4868947;29;20045;-78
2023/07/10 09:50:00;;;;;;;7.45;3.40;;;;;;;;;;4868023;29;20065;-77
2023/07/10 09:52:55;;;;;;;39.72;30.65;;;;;;;;;;4862769;29;20058;-79
2023/07/10 09:55:43;;;;;;;95.43;68.53;;;;;;;;;;4862362;29;20057;-77
2023/07/10 09:58:29;;;;;;;4.72;3.03;;;;;;;;;;4868612;29;20491;-80
2023/07/10 10:01:14;;;;;;;16.75;11.43;;;;;;;;;;4868544;29;20041;-77
2023/07/10 10:04:02;;;;;;;7.18;3.53;;;;;;;;;;4862335;29;20049;-78
2023/07/10 10:07:00;;;;;;;81.32;65.78;;;;;;;;;;4868667;29;20479;-79
2023/07/10 10:09:46;;;;;;;10.13;7.80;;;;;;;;;;4862299;29;20049;-78
2023/07/10 10:12:34;;;;;;;5.70;3.90;;;;;;;;;;4862356;29;20057;-79
2023/07/10 10:15:28;;;;;;;6.13;3.20;;;;;;;;;;4862085;29;20053;-79
2023/07/10 10:18:40;;;;;;;4.75;3.10;;;;;;;;;;4868163;29;20041;-80
2023/07/10 10:21:30;;;;;;;5.88;4.15;;;;;;;;;;4868360;29;20057;-80
2023/07/10 10:24:17;;;;;;;4.28;2.97;;;;;;;;;;4868195;29;20045;-80
2023/07/10 10:27:22;;;;;;;6.72;3.60;;;;;;;;;;4868056;29;20483;-78
2023/07/10 10:30:18;;;;;;;6.22;3.40;;;;;;;;;;4864101;29;20057;-78
2023/07/10 10:33:30;;;;;;;6.38;3.50;;;;;;;;;;4862194;29;20053;-78
2023/07/10 10:36:28;;;;;;;9.00;3.45;;;;;;;;;;4861927;29;20037;-81
2023/07/10 10:39:36;;;;;;;7.78;3.42;;;;;;;;;;4868134;29;20395;-78
2023/07/10 10:42:43;;;;;;;6.78;3.33;;;;;;;;;;4866841;29;20041;-79
2023/07/10 10:45:39;;;;;;;8.75;3.35;;;;;;;;;;4868271;29;20395;-79
2023/07/10 10:48:42;;;;;;;9.25;4.00;;;;;;;;;;4867750;29;20049;-77
2023/07/10 10:51:50;;;;;;;5.00;3.40;;;;;;;;;;4861736;29;20045;-79
2023/07/10 10:54:49;;;;;;;5.55;3.50;;;;;;;;;;4861860;29;20102;-77
2023/07/10 10:57:56;;;;;;;6.57;3.30;;;;;;;;;;4862294;29;20053;-78
2023/07/10 11:00:56;;;;;;;6.43;2.92;;;;;;;;;;4867219;29;20049;-78
2023/07/10 11:03:54;;;;;;;4.15;3.13;;;;;;;;;;4861424;29;20057;-78
2023/07/10 11:06:52;;;;;;;6.20;3.15;;;;;;;;;;4861236;29;20395;-78
2023/07/10 11:09:52;;;;;;;6.47;3.45;;;;;;;;;;4867446;29;20053;-80
2023/07/10 11:12:38;;;;;;;7.60;2.90;;;;;;;;;;4861234;29;20045;-79
2023/07/10 11:15:26;;;;;;;7.00;3.17;;;;;;;;;;4861233;29;20395;-79
2023/07/10 11:18:15;;;;;;;8.30;3.70;;;;;;;;;;4861425;29;20053;-78
2023/07/10 11:21:02;;;;;;;5.70;3.00;;;;;;;;;;4867391;29;20049;-78
2023/07/10 11:23:51;;;;;;;7.80;3.50;;;;;;;;;;4867589;29;20053;-78
2023/07/10 11:26:37;;;;;;;6.30;3.40;;;;;;;;;;4867602;29;20057;-79
2023/07/10 11:29:34;;;;;;;5.88;3.08;;;;;;;;;;4865323;29;20054;-78
2023/07/10 11:32:23;;;;;;;5.75;2.92;;;;;;;;;;4861408;29;20045;-79
2023/07/10 11:35:20;;;;;;;6.53;2.92;;;;;;;;;;4867088;29;20049;-75
2023/07/10 11:38:14;;;;;;;3.95;3.25;;;;;;;;;;4866150;29;20053;-79
2023/07/10 11:41:23;;;;;;;4.53;3.20;;;;;;;;;;4867032;29;20045;-75
2023/07/10 11:44:19;;;;;;;5.57;3.15;;;;;;;;;;4861165;29;20472;-78
2023/07/10 11:47:04;;;;;;;8.25;3.17;;;;;;;;;;4860930;29;20046;-78
2023/07/10 11:49:55;;;;;;;7.55;3.08;;;;;;;;;;4860992;29;20053;-76
2023/07/10 11:52:41;;;;;;;7.57;3.00;;;;;;;;;;4861065;29;20491;-76
2023/07/10 11:55:27;;;;;;;4.60;2.90;;;;;;;;;;4867205;29;20053;-76
2023/07/10 11:58:33;;;;;;;5.43;3.55;;;;;;;;;;4867156;29;20037;-83
2023/07/10 12:01:20;;;;;;;6.55;3.28;;;;;;;;;;4860572;29;20045;-85
2023/07/10 12:04:14;;;;;;;5.40;3.20;;;;;;;;;;4860747;29;20045;-84
2023/07/10 12:07:04;;;;;;;4.83;3.33;;;;;;;;;;4866219;29;20057;-83
2023/07/10 12:09:52;;;;;;;6.47;3.35;;;;;;;;;;4866375;29;20050;-85
2023/07/10 12:12:38;;;;;;;6.85;4.22;;;;;;;;;;4871826;29;20403;-81
2023/07/10 12:15:26;;;;;;;5.20;3.13;;;;;;;;;;4864039;29;20042;-79
2023/07/10 12:18:34;;;;;;;9.38;3.47;;;;;;;;;;4864490;29;20483;-76
2023/07/10 12:21:21;;;;;;;4.20;3.25;;;;;;;;;;4864071;29;20050;-80
2023/07/10 12:24:15;;;;;;;6.78;3.10;;;;;;;;;;4864010;29;20415;-78
2023/07/10 12:27:01;;;;;;;6.88;3.45;;;;;;;;;;4863837;29;20499;-78
2023/07/10 12:29:55;;;;;;;4.10;3.30;;;;;;;;;;4867164;29;20045;-77
2023/07/10 12:32:40;;;;;;;6.32;3.20;;;;;;;;;;4869343;29;20041;-77
2023/07/10 12:35:35;;;;;;;6.88;2.85;;;;;;;;;;4864191;29;20053;-76
2023/07/10 12:38:21;;;;;;;5.93;2.90;;;;;;;;;;4869886;29;20037;-80
2023/07/10 12:41:07;;;;;;;5.00;3.33;;;;;;;;;;4870479;29;20061;-79
2023/07/10 12:43:56;;;;;;;6.25;3.50;;;;;;;;;;4869953;29;20409;-79
2023/07/10 12:46:41;;;;;;;3.83;2.80;;;;;;;;;;4863722;29;20045;-76
2023/07/10 12:49:30;;;;;;;4.22;2.75;;;;;;;;;;4868647;29;20049;-78
2023/07/10 12:52:16;;;;;;;4.55;2.75;;;;;;;;;;4863559;29;20480;-76
2023/07/10 12:55:04;;;;;;;8.00;3.20;;;;;;;;;;4869929;29;20053;-76
2023/07/10 12:57:56;;;;;;;4.20;3.00;;;;;;;;;;4863525;29;20053;-77
2023/07/10 13:00:54;;;;;;;5.43;2.80;;;;;;;;;;4863722;29;20057;-78
2023/07/10 13:03:40;;;;;;;4.78;3.03;;;;;;;;;;4863567;29;20420;-78
2023/07/10 13:06:26;;;;;;;5.03;3.17;;;;;;;;;;4868453;29;20041;-78
2023/07/10 13:09:21;;;;;;;4.32;2.70;;;;;;;;;;4863654;29;20408;-78
2023/07/10 13:12:19;;;;;;;5.15;3.47;;;;;;;;;;4869373;29;20049;-78
2023/07/10 13:15:05;;;;;;;9.15;3.13;;;;;;;;;;4869334;29;20053;-77
2023/07/10 13:17:54;;;;;;;9.43;3.17;;;;;;;;;;4869601;29;20057;-77
2023/07/10 13:20:40;;;;;;;7.18;3.42;;;;;;;;;;4869621;29;20041;-78
2023/07/10 13:23:26;;;;;;;6.15;3.13;;;;;;;;;;4868842;29;20042;-78
2023/07/10 13:26:21;;;;;;;6.15;3.40;;;;;;;;;;4862918;29;20041;-77
2023/07/10 13:29:11;;;;;;;5.78;3.33;;;;;;;;;;4862430;29;20070;-79
2023/07/10 13:31:56;;;;;;;7.85;3.33;;;;;;;;;;4863014;29;20045;-77
2023/07/10 13:34:42;;;;;;;5.38;3.47;;;;;;;;;;4862956;29;20038;-78
2023/07/10 13:37:28;;;;;;;4.05;3.22;;;;;;;;;;4868883;29;20403;-78
2023/07/10 13:40:21;;;;;;;4.88;3.40;;;;;;;;;;4868717;29;20042;-78
2023/07/10 13:43:20;;;;;;;9.40;3.47;;;;;;;;;;4868904;29;20467;-78
2023/07/10 13:46:17;;;;;;;6.50;3.33;;;;;;;;;;4869005;29;20050;-76
2023/07/10 13:49:10;;;;;;;5.75;3.30;;;;;;;;;;4862630;29;20058;-77
2023/07/10 13:51:55;;;;;;;4.93;3.03;;;;;;;;;;4868883;29;20045;-78
2023/07/10 13:54:42;;;;;;;4.97;3.20;;;;;;;;;;4862675;29;20484;-79
2023/07/10 13:57:30;;;;;;;4.50;3.25;;;;;;;;;;4862771;29;20045;-79
2023/07/10 14:00:15;;;;;;;6.15;3.55;;;;;;;;;;4862554;29;20050;-76
2023/07/10 14:03:00;;;;;;;7.53;3.72;;;;;;;;;;4862627;29;20049;-76
2023/07/10 14:05:48;;;;;;;5.72;3.28;;;;;;;;;;4868418;29;20045;-76
2023/07/10 14:08:40;;;;;;;5.43;3.50;;;;;;;;;;4868382;29;20041;-78
2023/07/10 14:11:27;;;;;;;5.68;3.53;;;;;;;;;;4862697;29;20057;-76
2023/07/10 14:14:16;;;;;;;9.85;3.55;;;;;;;;;;4862557;29;20395;-75
2023/07/10 14:17:03;;;;;;;4.80;3.30;;;;;;;;;;4862081;29;20042;-76
2023/07/10 14:19:49;;;;;;;5.05;3.80;;;;;;;;;;4868271;29;20046;-76
2023/07/10 14:22:35;;;;;;;5.85;3.22;;;;;;;;;;4868175;29;20049;-77
2023/07/10 14:25:22;;;;;;;7.60;3.40;;;;;;;;;;4868144;29;20045;-76
2023/07/10 14:28:15;;;;;;;8.77;3.88;;;;;;;;;;4861977;29;20045;-79
2023/07/10 14:31:00;;;;;;;4.00;3.10;;;;;;;;;;4861980;29;20049;-77
2023/07/10 14:33:47;;;;;;;10.43;4.57;;;;;;;;;;4861608;29;20049;-79
2023/07/10 14:36:33;;;;;;;5.97;3.60;;;;;;;;;;4861779;29;20491;-78
2023/07/10 14:39:18;;;;;;;6.47;3.60;;;;;;;;;;4862065;29;20041;-77
2023/07/10 14:42:11;;;;;;;16.70;4.22;;;;;;;;;;4861796;29;20049;-79
2023/07/10 14:44:56;;;;;;;7.13;3.55;;;;;;;;;;4867361;29;20053;-79
2023/07/10 14:47:43;;;;;;;9.43;3.40;;;;;;;;;;4861674;29;20488;-79
2023/07/10 14:50:29;;;;;;;4.75;3.50;;;;;;;;;;4867784;29;20057;-78
2023/07/10 14:53:32;;;;;;;4.65;3.50;;;;;;;;;;4861704;29;20053;-78
2023/07/10 14:56:18;;;;;;;7.20;3.50;;;;;;;;;;4861715;29;20476;-76
2023/07/10 14:59:03;;;;;;;3.88;3.38;;;;;;;;;;4867628;29;20045;-80
2023/07/10 15:01:49;;;;;;;5.97;3.42;;;;;;;;;;4861685;29;20049;-77
2023/07/10 15:04:34;;;;;;;7.07;3.33;;;;;;;;;;4861383;29;20045;-78
2023/07/10 15:07:21;;;;;;;6.60;3.65;;;;;;;;;;4861664;29;20049;-79
2023/07/10 15:10:21;;;;;;;5.53;3.00;;;;;;;;;;4861031;29;20046;-79
2023/07/10 15:13:15;;;;;;;4.93;3.38;;;;;;;;;;4861553;29;20049;-79
2023/07/10 15:16:03;;;;;;;9.40;3.70;;;;;;;;;;4861325;29;20045;-78
2023/07/10 15:18:49;;;;;;;6.80;3.60;;;;;;;;;;4861415;29;20049;-78
2023/07/10 15:21:35;;;;;;;7.90;3.50;;;;;;;;;;4867655;29;20499;-79
2023/07/10 15:24:23;;;;;;;8.68;3.28;;;;;;;;;;4861169;29;20536;-77
2023/07/10 15:27:08;;;;;;;5.97;3.50;;;;;;;;;;4867611;29;20484;-78
2023/07/10 15:29:53;;;;;;;8.93;3.35;;;;;;;;;;4860698;29;20053;-77
2023/07/10 15:32:42;;;;;;;5.88;3.38;;;;;;;;;;4861098;29;20053;-78
2023/07/10 15:35:29;;;;;;;6.30;3.50;;;;;;;;;;4861406;29;20471;-77
2023/07/10 15:38:18;;;;;;;6.70;3.60;;;;;;;;;;4867395;29;20045;-78
2023/07/10 15:41:18;;;;;;;7.90;3.03;;;;;;;;;;4867274;29;20399;-77
2023/07/10 15:44:10;;;;;;;6.38;3.80;;;;;;;;;;4861621;29;20395;-77
2023/07/10 15:46:55;;;;;;;10.07;5.05;;;;;;;;;;4862860;29;20399;-77
2023/07/10 15:49:40;;;;;;;5.30;3.80;;;;;;;;;;4864433;29;20491;-77
2023/07/10 15:52:32;;;;;;;6.20;3.83;;;;;;;;;;4870912;29;20045;-79
2023/07/10 15:55:31;;;;;;;5.93;3.58;;;;;;;;;;4864691;29;20037;-78
2023/07/10 15:58:20;;;;;;;7.57;3.80;;;;;;;;;;4864703;29;20049;-76
2023/07/10 16:01:04;;;;;;;5.80;3.30;;;;;;;;;;4864178;29;20049;-76
2023/07/10 16:03:50;;;;;;;4.53;3.85;;;;;;;;;;4870645;29;20057;-78
2023/07/10 16:06:35;;;;;;;6.00;3.67;;;;;;;;;;4864276;29;20045;-78
2023/07/10 16:09:20;;;;;;;5.57;3.80;;;;;;;;;;4864512;29;20449;-77
2023/07/10 16:12:11;;;;;;;6.90;3.90;;;;;;;;;;4870648;29;20041;-78
2023/07/10 16:14:56;;;;;;;9.75;4.07;;;;;;;;;;4864127;29;20053;-78
2023/07/10 16:17:44;;;;;;;10.80;6.93;;;;;;;;;;4864085;29;20050;-79
2023/07/10 16:20:29;;;;;;;7.93;4.35;;;;;;;;;;4864335;29;20397;-80
2023/07/10 16:23:24;;;;;;;9.35;4.25;;;;;;;;;;4864169;29;20046;-77
2023/07/10 16:26:12;;;;;;;7.60;3.83;;;;;;;;;;4870280;29;20407;-75
2023/07/10 16:28:58;;;;;;;6.88;4.53;;;;;;;;;;4863713;29;20042;-75
2023/07/10 16:31:43;;;;;;;8.00;5.15;;;;;;;;;;4864015;29;20403;-75
2023/07/10 16:34:29;;;;;;;6.65;4.50;;;;;;;;;;4864119;29;20046;-76
2023/07/10 16:37:14;;;;;;;11.98;4.18;;;;;;;;;;4863814;29;20395;-75
2023/07/10 16:40:00;;;;;;;9.82;4.25;;;;;;;;;;4869901;29;20045;-75
2023/07/10 16:42:47;;;;;;;6.68;3.88;;;;;;;;;;4863771;29;20428;-77
2023/07/10 16:45:32;;;;;;;8.60;3.85;;;;;;;;;;4863949;29;20049;-75
2023/07/10 16:48:23;;;;;;;9.38;4.20;;;;;;;;;;4849930;29;20484;-76
2023/07/10 16:51:16;;;;;;;7.53;5.43;;;;;;;;;;4863927;29;20041;-76
2023/07/10 16:54:03;;;;;;;7.90;5.10;;;;;;;;;;4870089;29;20057;-76